Daytona Beach International Airport
KDAB : now visible

Airfield :











YOU CAN JOIN US ON...

 
LOGIN :

Register | Disclaimer

   EN    FR    IT 

 









Legend :    VFR   Marginal VFR   IFR   Intensive IFR   Very Intensive IFR
Visi :
Ceiling :
>= 8 km
>= 3000ft
5 to 8 km
1000 to 3000 ft
1500m to 5 km
500 to 1000 ft
800 to 1500m
200 to 500 ft
< 800m
< 200 ft
Symbols :   Thunderstorms  Fog  Heavy snow  Heavy precipitations  Wind > 20 kt






- Airport Elevation : 34 ft
- IATA code : DAB


KDAB - Daytona Beach International

CURRENT METAR :
  • 250753Z 09006KT 10SM OVC130 25/21 A2995 RMK AO2 RAE05 SLP141 P0000 T02500206

EXPIRED METARs :
  • 250653Z 11004KT 10SM -RA FEW025 OVC130 25/22 A2996 RMK AO2 SLP145 P0000 T02500222
  • 250553Z 10006KT 10SM -RA FEW025 OVC130 25/22 A2997 RMK AO2 RAB48 SLP148 P0000 60000 T02500217 10256 20250 58008

TAF KDAB
Valid from the 25 at 06:00 until the 26 at 06:00 UTC


250526Z 2506/2606 11007KT P6SM VCSH SCT030 OVC120
FM251200 09012KT P6SM VCSH SCT040 OVC060
FM251800 09013G21KT 5SM -RA VCTS SCT025CB OVC050
FM260000 07015G23KT 5SM RA BKN025 OVC050
KZJX FIR / North America



MET'MAP, your aeronautical weather chart ! - Copyright ORBIFLY December 2007 - Disclaimer

ORBIFLY MET'MAP TEAM :

Programming & Development : Alexandra Zaïnal
Concept & original design : Baudouin d'Aumeries
Assistance for programming : Marc-Olivier Méhu
Technical & hardware support : Manuel Goepfert

Contact : metmap@orbifly.com




SOURCES & CREDITS :

   NOAA       Earth
Advisory